Time,TemperatureF,DewpointF,PressureIn,WindDirection,WindDirectionDegrees,WindSpeedMPH,WindSpeedGustMPH,Humidity,HourlyPrecipIn,Conditions,Clouds,dailyrainin,SoftwareType,DateUTC
2013-03-13 00:05:00,24.4,19.4,29.96,NW,317,7.0,7.0,81,0.00,,,0.03,Wunderground v.1.13,2013-03-13 05:05:00,
2013-03-13 00:15:00,24.1,18.2,29.96,NW,325,7.0,7.0,78,0.00,,,0.03,Wunderground v.1.13,2013-03-13 05:15:00,
2013-03-13 00:25:00,24.1,16.7,29.96,NW,309,7.0,7.0,73,0.00,,,0.03,Wunderground v.1.13,2013-03-13 05:25:00,
2013-03-13 00:30:00,24.1,15.7,29.96,NW,320,5.0,19.0,70,0.00,,,0.03,Wunderground v.1.13,2013-03-13 05:30:00,
2013-03-13 00:40:00,23.9,12.4,29.96,NW,315,10.0,19.0,61,0.00,,,0.03,Wunderground v.1.13,2013-03-13 05:40:00,
2013-03-13 00:45:00,23.9,12.0,29.96,WNW,303,9.0,9.0,60,0.00,,,0.03,Wunderground v.1.13,2013-03-13 05:45:00,
2013-03-13 00:55:00,23.6,11.4,29.97,NW,308,7.0,19.0,59,0.00,,,0.03,Wunderground v.1.13,2013-03-13 05:55:00,
2013-03-13 01:05:00,23.3,11.8,29.97,NW,311,6.0,19.0,61,0.00,,,0.03,Wunderground v.1.13,2013-03-13 06:05:00,
2013-03-13 01:15:00,23.0,11.5,29.97,NW,316,7.0,7.0,61,0.00,,,0.03,Wunderground v.1.13,2013-03-13 06:15:00,
2013-03-13 01:20:00,22.9,11.1,29.98,WNW,302,6.0,19.0,60,0.00,,,0.03,Wunderground v.1.13,2013-03-13 06:20:00,
2013-03-13 01:30:00,22.7,11.3,29.98,NW,311,7.0,19.0,61,0.00,,,0.03,Wunderground v.1.13,2013-03-13 06:30:00,
2013-03-13 01:40:00,22.4,11.0,29.98,NW,309,7.0,7.0,61,0.00,,,0.03,Wunderground v.1.13,2013-03-13 06:40:00,
2013-03-13 01:45:00,22.4,11.3,29.98,WNW,292,7.0,7.0,62,0.00,,,0.03,Wunderground v.1.13,2013-03-13 06:45:00,
2013-03-13 01:50:00,22.2,11.1,29.99,NW,319,7.0,19.0,62,0.00,,,0.03,Wunderground v.1.13,2013-03-13 06:50:00,
2013-03-13 02:00:00,22.1,11.4,29.99,WNW,300,6.0,19.0,63,0.00,,,0.03,Wunderground v.1.13,2013-03-13 07:00:00,
2013-03-13 02:05:00,21.9,11.6,30.00,West,278,5.0,16.0,64,0.00,,,0.03,Wunderground v.1.13,2013-03-13 07:05:00,
2013-03-13 02:15:00,21.6,12.0,30.00,NW,319,6.0,6.0,66,0.00,,,0.03,Wunderground v.1.13,2013-03-13 07:15:00,
2013-03-13 02:25:00,21.4,12.1,30.00,WNW,300,5.0,5.0,67,0.00,,,0.03,Wunderground v.1.13,2013-03-13 07:25:00,
2013-03-13 02:35:00,21.1,12.2,30.00,NW,323,5.0,5.0,68,0.00,,,0.03,Wunderground v.1.13,2013-03-13 07:35:00,
2013-03-13 02:40:00,21.1,12.2,30.00,West,281,6.0,6.0,68,0.00,,,0.03,Wunderground v.1.13,2013-03-13 07:40:00,
2013-03-13 02:45:00,21.1,12.2,30.00,WNW,303,6.0,16.0,68,0.00,,,0.03,Wunderground v.1.13,2013-03-13 07:45:00,
2013-03-13 02:55:00,21.0,12.4,30.01,WNW,300,7.0,7.0,69,0.00,,,0.03,Wunderground v.1.13,2013-03-13 07:55:00,
2013-03-13 03:00:00,21.0,12.7,30.01,WNW,284,6.0,16.0,70,0.00,,,0.03,Wunderground v.1.13,2013-03-13 08:00:00,
2013-03-13 03:10:00,20.8,12.6,30.01,WNW,284,7.0,16.0,70,0.00,,,0.03,Wunderground v.1.13,2013-03-13 08:10:00,
2013-03-13 03:15:00,20.8,12.9,30.01,West,275,6.0,6.0,71,0.00,,,0.03,Wunderground v.1.13,2013-03-13 08:15:00,
2013-03-13 03:25:00,20.6,13.0,30.01,NW,306,6.0,16.0,72,0.00,,,0.03,Wunderground v.1.13,2013-03-13 08:25:00,
2013-03-13 03:30:00,20.6,13.0,30.01,NW,311,6.0,16.0,72,0.00,,,0.03,Wunderground v.1.13,2013-03-13 08:30:00,
2013-03-13 03:35:00,20.6,13.0,30.01,WNW,300,7.0,16.0,72,0.00,,,0.03,Wunderground v.1.13,2013-03-13 08:35:00,
2013-03-13 03:45:00,20.5,13.2,30.01,NNW,330,6.0,6.0,73,0.00,,,0.03,Wunderground v.1.13,2013-03-13 08:45:00,
2013-03-13 03:50:00,20.5,13.2,30.02,WSW,257,5.0,5.0,73,0.00,,,0.03,Wunderground v.1.13,2013-03-13 08:50:00,
2013-03-13 04:00:00,20.5,13.2,30.02,WNW,300,7.0,16.0,73,0.00,,,0.03,Wunderground v.1.13,2013-03-13 09:00:00,
2013-03-13 04:05:00,20.5,13.2,30.02,WNW,287,7.0,7.0,73,0.00,,,0.03,Wunderground v.1.13,2013-03-13 09:05:00,
2013-03-13 04:15:00,20.3,13.0,30.02,NW,309,6.0,6.0,73,0.00,,,0.03,Wunderground v.1.13,2013-03-13 09:15:00,
2013-03-13 04:20:00,20.2,12.9,30.03,West,263,6.0,6.0,73,0.00,,,0.03,Wunderground v.1.13,2013-03-13 09:20:00,
2013-03-13 04:30:00,20.0,13.0,30.03,West,277,6.0,16.0,74,0.00,,,0.03,Wunderground v.1.13,2013-03-13 09:30:00,
2013-03-13 04:40:00,19.9,12.9,30.04,NW,308,6.0,6.0,74,0.00,,,0.03,Wunderground v.1.13,2013-03-13 09:40:00,
2013-03-13 04:50:00,19.7,12.8,30.05,NW,306,5.0,15.0,74,0.00,,,0.03,Wunderground v.1.13,2013-03-13 09:50:00,
2013-03-13 05:00:00,19.5,12.6,30.05,WNW,302,6.0,15.0,74,0.00,,,0.03,Wunderground v.1.13,2013-03-13 10:00:00,
2013-03-13 05:05:00,19.5,12.6,30.05,WNW,283,6.0,6.0,74,0.00,,,0.03,Wunderground v.1.13,2013-03-13 10:05:00,
2013-03-13 05:15:00,19.4,12.8,30.05,WNW,292,6.0,14.0,75,0.00,,,0.03,Wunderground v.1.13,2013-03-13 10:15:00,
2013-03-13 05:20:00,19.2,12.6,30.06,WNW,288,6.0,14.0,75,0.00,,,0.03,Wunderground v.1.13,2013-03-13 10:20:00,
2013-03-13 05:30:00,19.2,12.6,30.06,WNW,300,6.0,6.0,75,0.00,,,0.03,Wunderground v.1.13,2013-03-13 10:30:00,
2013-03-13 05:35:00,19.2,12.6,30.06,NW,306,5.0,14.0,75,0.00,,,0.03,Wunderground v.1.13,2013-03-13 10:35:00,
2013-03-13 05:40:00,19.2,12.6,30.06,West,279,6.0,6.0,75,0.00,,,0.03,Wunderground v.1.13,2013-03-13 10:40:00,
2013-03-13 05:50:00,19.2,12.9,30.07,WNW,302,5.0,14.0,76,0.00,,,0.03,Wunderground v.1.13,2013-03-13 10:50:00,
2013-03-13 06:00:00,19.1,12.8,30.07,WNW,294,6.0,14.0,76,0.00,,,0.03,Wunderground v.1.13,2013-03-13 11:00:00,
2013-03-13 06:05:00,19.1,12.8,30.08,WNW,285,6.0,14.0,76,0.00,,,0.00,Wunderground v.1.13,2013-03-13 11:05:00,
2013-03-13 06:15:00,18.9,12.6,30.08,West,275,6.0,6.0,76,0.00,,,0.00,Wunderground v.1.13,2013-03-13 11:15:00,
2013-03-13 06:25:00,18.8,12.5,30.08,West,278,6.0,14.0,76,0.00,,,0.00,Wunderground v.1.13,2013-03-13 11:25:00,
2013-03-13 06:35:00,18.6,12.3,30.09,West,281,6.0,6.0,76,0.00,,,0.00,Wunderground v.1.13,2013-03-13 11:35:00,
2013-03-13 06:40:00,18.6,12.3,30.09,NNW,338,5.0,14.0,76,0.00,,,0.00,Wunderground v.1.13,2013-03-13 11:40:00,
2013-03-13 06:45:00,18.6,12.3,30.09,NW,315,6.0,6.0,76,0.00,,,0.00,Wunderground v.1.13,2013-03-13 11:45:00,
2013-03-13 06:55:00,18.4,12.1,30.10,West,279,5.0,14.0,76,0.00,,,0.00,Wunderground v.1.13,2013-03-13 11:55:00,
2013-03-13 07:00:00,18.4,12.1,30.10,WNW,303,6.0,14.0,76,0.00,,,0.00,Wunderground v.1.13,2013-03-13 12:00:00,
2013-03-13 07:05:00,18.3,12.0,30.10,WNW,289,6.0,6.0,76,0.00,,,0.00,Wunderground v.1.13,2013-03-13 12:05:00,
2013-03-13 07:15:00,18.3,12.0,30.10,WNW,282,6.0,14.0,76,0.00,,,0.00,Wunderground v.1.13,2013-03-13 12:15:00,
2013-03-13 07:25:00,18.3,12.0,30.10,West,271,5.0,14.0,76,0.00,,,0.00,Wunderground v.1.13,2013-03-13 12:25:00,
2013-03-13 07:35:00,18.4,11.8,30.11,NW,313,5.0,5.0,75,0.00,,,0.00,Wunderground v.1.13,2013-03-13 12:35:00,
2013-03-13 07:40:00,18.4,11.8,30.11,WNW,286,5.0,5.0,75,0.00,,,0.00,Wunderground v.1.13,2013-03-13 12:40:00,
2013-03-13 07:45:00,18.6,12.0,30.11,West,267,4.0,4.0,75,0.00,,,0.00,Wunderground v.1.13,2013-03-13 12:45:00,
2013-03-13 07:55:00,18.8,11.9,30.11,WNW,292,5.0,5.0,74,0.00,,,0.00,Wunderground v.1.13,2013-03-13 12:55:00,
2013-03-13 08:05:00,18.9,12.0,30.13,West,278,4.0,14.0,74,0.00,,,0.00,Wunderground v.1.13,2013-03-13 13:05:00,
2013-03-13 08:15:00,19.2,11.6,30.13,West,267,5.0,5.0,72,0.00,,,0.00,Wunderground v.1.13,2013-03-13 13:15:00,
2013-03-13 08:25:00,19.4,11.8,30.13,West,278,7.0,14.0,72,0.00,,,0.00,Wunderground v.1.13,2013-03-13 13:25:00,
2013-03-13 08:30:00,19.4,11.8,30.13,WNW,302,7.0,14.0,72,0.00,,,0.00,Wunderground v.1.13,2013-03-13 13:30:00,
2013-03-13 08:40:00,19.7,11.8,30.14,WNW,302,7.0,14.0,71,0.00,,,0.00,Wunderground v.1.13,2013-03-13 13:40:00,
2013-03-13 08:45:00,19.5,11.3,30.14,WNW,284,7.0,14.0,70,0.00,,,0.00,Wunderground v.1.13,2013-03-13 13:45:00,
2013-03-13 08:50:00,19.5,11.3,30.15,West,276,7.0,7.0,70,0.00,,,0.00,Wunderground v.1.13,2013-03-13 13:50:00,
2013-03-13 08:55:00,19.5,11.3,30.15,NW,313,7.0,14.0,70,0.00,,,0.00,Wunderground v.1.13,2013-03-13 13:55:00,
2013-03-13 09:05:00,20.2,11.7,30.15,NW,311,7.0,18.0,69,0.00,,,0.00,Wunderground v.1.13,2013-03-13 14:05:00,
2013-03-13 09:15:00,20.5,11.9,30.15,NW,307,7.0,18.0,69,0.00,,,0.00,Wunderground v.1.13,2013-03-13 14:15:00,
2013-03-13 09:25:00,21.0,11.8,30.16,WNW,292,7.0,18.0,67,0.00,,,0.00,Wunderground v.1.13,2013-03-13 14:25:00,
2013-03-13 09:30:00,21.1,11.8,30.16,WNW,301,6.0,6.0,67,0.00,,,0.00,Wunderground v.1.13,2013-03-13 14:30:00,
2013-03-13 09:35:00,21.3,11.7,30.16,WNW,290,7.0,7.0,66,0.00,,,0.00,Wunderground v.1.13,2013-03-13 14:35:00,
2013-03-13 09:45:00,21.3,11.4,30.16,WNW,298,9.0,18.0,65,0.00,,,0.00,Wunderground v.1.13,2013-03-13 14:45:00,
2013-03-13 09:55:00,21.8,11.5,30.17,NW,315,8.0,18.0,64,0.00,,,0.00,Wunderground v.1.13,2013-03-13 14:55:00,
2013-03-13 10:00:00,22.1,11.4,30.17,NW,325,7.0,7.0,63,0.00,,,0.00,Wunderground v.1.13,2013-03-13 15:00:00,
2013-03-13 10:05:00,22.4,11.0,30.18,WNW,285,6.0,6.0,61,0.00,,,0.00,Wunderground v.1.13,2013-03-13 15:05:00,
2013-03-13 10:15:00,22.7,11.3,30.18,WNW,286,8.0,8.0,61,0.00,,,0.00,Wunderground v.1.13,2013-03-13 15:15:00,
2013-03-13 10:25:00,22.9,10.3,30.18,WNW,296,8.0,22.0,58,0.00,,,0.00,Wunderground v.1.13,2013-03-13 15:25:00,
2013-03-13 10:30:00,23.2,11.0,30.18,NW,312,8.0,22.0,59,0.00,,,0.00,Wunderground v.1.13,2013-03-13 15:30:00,
2013-03-13 10:40:00,23.5,10.5,30.19,WNW,297,8.0,22.0,57,0.00,,,0.00,Wunderground v.1.13,2013-03-13 15:40:00,
2013-03-13 10:45:00,23.8,10.8,30.19,NW,315,8.0,8.0,57,0.00,,,0.00,Wunderground v.1.13,2013-03-13 15:45:00,
2013-03-13 10:55:00,24.1,10.2,30.19,NW,319,8.0,22.0,55,0.00,,,0.00,Wunderground v.1.13,2013-03-13 15:55:00,
2013-03-13 11:05:00,24.4,9.7,30.19,WNW,284,9.0,9.0,53,0.00,,,0.00,Wunderground v.1.13,2013-03-13 16:05:00,
2013-03-13 11:15:00,24.7,10.0,30.19,West,269,9.0,9.0,53,0.00,,,0.00,Wunderground v.1.13,2013-03-13 16:15:00,
2013-03-13 11:25:00,25.1,9.0,30.20,NW,320,8.0,18.0,50,0.00,,,0.00,Wunderground v.1.13,2013-03-13 16:25:00,
2013-03-13 11:30:00,25.6,10.0,30.20,NW,306,7.0,18.0,51,0.00,,,0.00,Wunderground v.1.13,2013-03-13 16:30:00,
2013-03-13 11:40:00,26.0,9.4,30.20,NNW,340,7.0,18.0,49,0.00,,,0.00,Wunderground v.1.13,2013-03-13 16:40:00,
2013-03-13 11:50:00,26.1,9.5,30.20,NW,319,9.0,18.0,49,0.00,,,0.00,Wunderground v.1.13,2013-03-13 16:50:00,
2013-03-13 11:55:00,26.4,9.8,30.20,NW,310,8.0,18.0,49,0.00,,,0.00,Wunderground v.1.13,2013-03-13 16:55:00,
2013-03-13 12:00:00,26.6,8.6,30.20,WNW,296,9.0,18.0,46,0.00,,,0.00,Wunderground v.1.13,2013-03-13 17:00:00,
2013-03-13 12:05:00,26.6,9.1,30.21,WNW,294,9.0,19.0,47,0.00,,,0.00,Wunderground v.1.13,2013-03-13 17:05:00,
2013-03-13 12:15:00,26.9,7.9,30.21,NW,312,9.0,9.0,44,0.00,,,0.00,Wunderground v.1.13,2013-03-13 17:15:00,
2013-03-13 12:25:00,27.3,6.7,30.21,NW,313,8.0,19.0,41,0.00,,,0.00,Wunderground v.1.13,2013-03-13 17:25:00,
2013-03-13 12:30:00,27.5,7.4,30.21,NW,311,8.0,8.0,42,0.00,,,0.00,Wunderground v.1.13,2013-03-13 17:30:00,
2013-03-13 12:40:00,28.1,7.4,30.21,NW,317,7.0,19.0,41,0.00,,,0.00,Wunderground v.1.13,2013-03-13 17:40:00,
2013-03-13 12:45:00,28.2,6.9,30.21,NW,312,8.0,19.0,40,0.00,,,0.00,Wunderground v.1.13,2013-03-13 17:45:00,
2013-03-13 12:50:00,28.5,9.3,30.21,West,277,7.0,7.0,44,0.00,,,0.00,Wunderground v.1.13,2013-03-13 17:50:00,
2013-03-13 12:55:00,29.1,8.8,30.21,NNW,331,6.0,19.0,42,0.00,,,0.00,Wunderground v.1.13,2013-03-13 17:55:00,
2013-03-13 13:00:00,28.5,5.5,30.21,NW,316,7.0,7.0,37,0.00,,,0.00,Wunderground v.1.13,2013-03-13 18:00:00,
2013-03-13 13:05:00,28.7,7.4,30.21,NW,305,8.0,8.0,40,0.00,,,0.00,Wunderground v.1.13,2013-03-13 18:05:00,
2013-03-13 13:15:00,29.3,8.5,30.21,NW,306,7.0,7.0,41,0.00,,,0.00,Wunderground v.1.13,2013-03-13 18:15:00,
2013-03-13 13:25:00,29.3,6.8,30.21,West,279,9.0,15.0,38,0.00,,,0.00,Wunderground v.1.13,2013-03-13 18:25:00,
2013-03-13 13:30:00,29.4,7.5,30.21,WNW,288,9.0,9.0,39,0.00,,,0.00,Wunderground v.1.13,2013-03-13 18:30:00,
2013-03-13 13:35:00,29.5,7.5,30.21,NW,309,7.0,15.0,39,0.00,,,0.00,Wunderground v.1.13,2013-03-13 18:35:00,
2013-03-13 13:45:00,29.5,6.4,30.21,NW,304,9.0,9.0,37,0.00,,,0.00,Wunderground v.1.13,2013-03-13 18:45:00,
2013-03-13 13:50:00,29.7,6.6,30.22,WNW,286,8.0,8.0,37,0.00,,,0.00,Wunderground v.1.13,2013-03-13 18:50:00,
2013-03-13 13:55:00,29.7,6.0,30.22,WNW,288,9.0,9.0,36,0.00,,,0.00,Wunderground v.1.13,2013-03-13 18:55:00,
2013-03-13 14:05:00,30.3,6.5,30.21,NW,306,7.0,7.0,36,0.00,,,0.00,Wunderground v.1.13,2013-03-13 19:05:00,
2013-03-13 14:15:00,30.6,6.8,30.21,NW,315,7.0,22.0,36,0.00,,,0.00,Wunderground v.1.13,2013-03-13 19:15:00,
2013-03-13 14:20:00,30.7,8.1,30.22,West,281,8.0,22.0,38,0.00,,,0.00,Wunderground v.1.13,2013-03-13 19:20:00,
2013-03-13 14:30:00,31.2,7.9,30.22,WNW,295,7.0,22.0,37,0.00,,,0.00,Wunderground v.1.13,2013-03-13 19:30:00,
2013-03-13 14:40:00,31.0,7.1,30.22,WNW,290,7.0,7.0,36,0.00,,,0.00,Wunderground v.1.13,2013-03-13 19:40:00,
2013-03-13 14:50:00,30.7,6.2,30.22,WNW,298,8.0,22.0,35,0.00,,,0.00,Wunderground v.1.13,2013-03-13 19:50:00,
2013-03-13 14:55:00,30.7,6.9,30.22,WNW,288,9.0,9.0,36,0.00,,,0.00,Wunderground v.1.13,2013-03-13 19:55:00,
2013-03-13 15:00:00,30.9,5.8,30.22,WSW,252,9.0,9.0,34,0.00,,,0.00,Wunderground v.1.13,2013-03-13 20:00:00,
2013-03-13 15:05:00,31.0,7.7,30.22,NNW,336,8.0,19.0,37,0.00,,,0.00,Wunderground v.1.13,2013-03-13 20:05:00,
2013-03-13 15:15:00,31.3,6.1,30.22,NNW,335,7.0,19.0,34,0.00,,,0.00,Wunderground v.1.13,2013-03-13 20:15:00,
2013-03-13 15:20:00,31.5,5.7,30.22,WNW,284,8.0,8.0,33,0.00,,,0.00,Wunderground v.1.13,2013-03-13 20:20:00,
2013-03-13 15:30:00,32.2,7.6,30.22,WNW,284,5.0,19.0,35,0.00,,,0.00,Wunderground v.1.13,2013-03-13 20:30:00,
2013-03-13 15:40:00,32.1,6.2,30.22,WNW,290,6.0,19.0,33,0.00,,,0.00,Wunderground v.1.13,2013-03-13 20:40:00,
2013-03-13 15:50:00,31.9,7.3,30.22,NW,308,7.0,7.0,35,0.00,,,0.00,Wunderground v.1.13,2013-03-13 20:50:00,
2013-03-13 15:55:00,32.1,6.8,30.22,West,280,6.0,19.0,34,0.00,,,0.00,Wunderground v.1.13,2013-03-13 20:55:00,
2013-03-13 16:00:00,32.1,6.2,30.22,WNW,290,6.0,6.0,33,0.00,,,0.00,Wunderground v.1.13,2013-03-13 21:00:00,
2013-03-13 16:05:00,32.4,6.4,30.23,NW,312,6.0,14.0,33,0.00,,,0.00,Wunderground v.1.13,2013-03-13 21:05:00,
2013-03-13 16:15:00,32.4,7.1,30.23,West,268,7.0,14.0,34,0.00,,,0.00,Wunderground v.1.13,2013-03-13 21:15:00,
2013-03-13 16:25:00,32.1,6.2,30.23,West,263,7.0,7.0,33,0.00,,,0.00,Wunderground v.1.13,2013-03-13 21:25:00,
2013-03-13 16:35:00,32.1,5.5,30.23,WNW,292,7.0,7.0,32,0.00,,,0.00,Wunderground v.1.13,2013-03-13 21:35:00,
2013-03-13 16:45:00,32.1,6.8,30.23,West,280,5.0,5.0,34,0.00,,,0.00,Wunderground v.1.13,2013-03-13 21:45:00,
2013-03-13 16:55:00,31.8,8.4,30.24,West,273,6.0,6.0,37,0.00,,,0.00,Wunderground v.1.13,2013-03-13 21:55:00,
2013-03-13 17:00:00,31.3,8.0,30.24,West,277,7.0,14.0,37,0.00,,,0.00,Wunderground v.1.13,2013-03-13 22:00:00,
2013-03-13 17:05:00,30.9,8.2,30.24,West,259,7.0,7.0,38,0.00,,,0.00,Wunderground v.1.13,2013-03-13 22:05:00,
2013-03-13 17:15:00,30.9,9.4,30.24,NW,313,5.0,13.0,40,0.00,,,0.00,Wunderground v.1.13,2013-03-13 22:15:00,
2013-03-13 17:25:00,30.7,8.6,30.24,WNW,292,7.0,7.0,39,0.00,,,0.00,Wunderground v.1.13,2013-03-13 22:25:00,
2013-03-13 17:35:00,30.4,8.4,30.24,West,281,6.0,13.0,39,0.00,,,0.00,Wunderground v.1.13,2013-03-13 22:35:00,
2013-03-13 17:45:00,30.3,8.3,30.24,West,279,6.0,13.0,39,0.00,,,0.00,Wunderground v.1.13,2013-03-13 22:45:00,
2013-03-13 17:50:00,30.1,8.7,30.24,West,273,7.0,7.0,40,0.00,,,0.00,Wunderground v.1.13,2013-03-13 22:50:00,
2013-03-13 17:55:00,30.1,9.7,30.24,WNW,287,6.0,6.0,42,0.00,,,0.00,Wunderground v.1.13,2013-03-13 22:55:00,
2013-03-13 18:05:00,30.3,9.9,30.24,West,279,4.0,4.0,42,0.00,,,0.00,Wunderground v.1.13,2013-03-13 23:05:00,
2013-03-13 18:15:00,30.3,9.9,30.24,West,279,1.0,1.0,42,0.00,,,0.00,Wunderground v.1.13,2013-03-13 23:15:00,
2013-03-13 18:25:00,29.8,9.5,30.24,West,269,2.0,14.0,42,0.00,,,0.00,Wunderground v.1.13,2013-03-13 23:25:00,
2013-03-13 18:30:00,29.7,9.9,30.24,West,271,2.0,2.0,43,0.00,,,0.00,Wunderground v.1.13,2013-03-13 23:30:00,
2013-03-13 18:35:00,29.7,9.4,30.24,West,271,2.0,2.0,42,0.00,,,0.00,Wunderground v.1.13,2013-03-13 23:35:00,
2013-03-13 18:45:00,29.3,9.5,30.24,West,268,1.0,1.0,43,0.00,,,0.00,Wunderground v.1.13,2013-03-13 23:45:00,
2013-03-13 18:50:00,29.0,10.3,30.25,West,268,1.0,1.0,45,0.00,,,0.00,Wunderground v.1.13,2013-03-13 23:50:00,
2013-03-13 18:55:00,28.5,10.3,30.25,West,268,0.0,14.0,46,0.00,,,0.00,Wunderground v.1.13,2013-03-13 23:55:00,
2013-03-13 19:00:00,28.2,10.0,30.25,West,268,0.0,14.0,46,0.00,,,0.00,Wunderground v.1.13,2013-03-14 00:00:00,
2013-03-13 19:05:00,27.9,10.2,30.25,West,269,1.0,1.0,47,0.00,,,0.00,Wunderground v.1.13,2013-03-14 00:05:00,
2013-03-13 19:15:00,27.5,10.4,30.25,West,269,0.0,6.0,48,0.00,,,0.00,Wunderground v.1.13,2013-03-14 00:15:00,
2013-03-13 19:25:00,27.2,10.1,30.25,West,269,0.0,6.0,48,0.00,,,0.00,Wunderground v.1.13,2013-03-14 00:25:00,
2013-03-13 19:30:00,27.0,10.4,30.25,West,269,0.0,6.0,49,0.00,,,0.00,Wunderground v.1.13,2013-03-14 00:30:00,
2013-03-13 19:35:00,26.9,10.3,30.25,West,269,0.0,6.0,49,0.00,,,0.00,Wunderground v.1.13,2013-03-14 00:35:00,
2013-03-13 19:45:00,26.6,10.4,30.25,West,269,0.0,6.0,50,0.00,,,0.00,Wunderground v.1.13,2013-03-14 00:45:00,
2013-03-13 19:55:00,26.3,10.2,30.25,West,269,0.0,6.0,50,0.00,,,0.00,Wunderground v.1.13,2013-03-14 00:55:00,
2013-03-13 20:05:00,26.0,9.9,30.26,West,263,0.0,5.0,50,0.00,,,0.00,Wunderground v.1.13,2013-03-14 01:05:00,
2013-03-13 20:15:00,25.8,9.7,30.26,West,263,0.0,5.0,50,0.00,,,0.00,Wunderground v.1.13,2013-03-14 01:15:00,
2013-03-13 20:20:00,25.7,10.0,30.26,West,263,0.0,5.0,51,0.00,,,0.00,Wunderground v.1.13,2013-03-14 01:20:00,
2013-03-13 20:30:00,25.6,10.0,30.26,West,263,0.0,5.0,51,0.00,,,0.00,Wunderground v.1.13,2013-03-14 01:30:00,
2013-03-13 20:40:00,25.4,9.8,30.26,West,263,0.0,5.0,51,0.00,,,0.00,Wunderground v.1.13,2013-03-14 01:40:00,
2013-03-13 20:50:00,25.3,9.7,30.26,West,263,0.0,5.0,51,0.00,,,0.00,Wunderground v.1.13,2013-03-14 01:50:00,
2013-03-13 20:55:00,25.1,9.5,30.26,West,263,0.0,5.0,51,0.00,,,0.00,Wunderground v.1.13,2013-03-14 01:55:00,
2013-03-13 21:05:00,24.8,9.2,30.26,West,263,0.0,2.0,51,0.00,,,0.00,Wunderground v.1.13,2013-03-14 02:05:00,
2013-03-13 21:15:00,24.7,9.5,30.26,West,263,0.0,2.0,52,0.00,,,0.00,Wunderground v.1.13,2013-03-14 02:15:00,
2013-03-13 21:20:00,24.4,9.3,30.25,West,263,0.0,2.0,52,0.00,,,0.00,Wunderground v.1.13,2013-03-14 02:20:00,
2013-03-13 21:30:00,23.8,9.1,30.25,West,263,0.0,2.0,53,0.00,,,0.00,Wunderground v.1.13,2013-03-14 02:30:00,
2013-03-13 21:35:00,23.6,9.4,30.25,West,263,0.0,2.0,54,0.00,,,0.00,Wunderground v.1.13,2013-03-14 02:35:00,
2013-03-13 21:45:00,23.5,9.7,30.25,West,263,0.0,2.0,55,0.00,,,0.00,Wunderground v.1.13,2013-03-14 02:45:00,
2013-03-13 21:55:00,22.9,9.9,30.25,West,263,0.0,2.0,57,0.00,,,0.00,Wunderground v.1.13,2013-03-14 02:55:00,
2013-03-13 22:05:00,22.2,9.3,30.25,West,263,0.0,0.0,57,0.00,,,0.00,Wunderground v.1.13,2013-03-14 03:05:00,
2013-03-13 22:15:00,21.6,9.1,30.25,West,263,0.0,0.0,58,0.00,,,0.00,Wunderground v.1.13,2013-03-14 03:15:00,
2013-03-13 22:20:00,21.3,9.2,30.26,West,263,0.0,0.0,59,0.00,,,0.00,Wunderground v.1.13,2013-03-14 03:20:00,
2013-03-13 22:30:00,21.0,8.9,30.26,West,263,0.0,0.0,59,0.00,,,0.00,Wunderground v.1.13,2013-03-14 03:30:00,
2013-03-13 22:40:00,21.0,8.9,30.26,West,263,0.0,0.0,59,0.00,,,0.00,Wunderground v.1.13,2013-03-14 03:40:00,
2013-03-13 22:50:00,21.0,8.9,30.26,West,263,0.0,0.0,59,0.00,,,0.00,Wunderground v.1.13,2013-03-14 03:50:00,
2013-03-13 23:00:00,20.8,8.7,30.26,West,263,0.0,0.0,59,0.00,,,0.00,Wunderground v.1.13,2013-03-14 04:00:00,
2013-03-13 23:05:00,20.6,8.5,30.26,West,263,0.0,0.0,59,0.00,,,0.00,Wunderground v.1.13,2013-03-14 04:05:00,
2013-03-13 23:10:00,20.5,8.8,30.26,West,263,0.0,0.0,60,0.00,,,0.00,Wunderground v.1.13,2013-03-14 04:10:00,
2013-03-13 23:15:00,20.3,8.6,30.26,West,263,0.0,0.0,60,0.00,,,0.00,Wunderground v.1.13,2013-03-14 04:15:00,
2013-03-13 23:20:00,20.3,8.6,30.26,West,263,0.0,0.0,60,0.00,,,0.00,Wunderground v.1.13,2013-03-14 04:20:00,
2013-03-13 23:25:00,20.2,8.5,30.26,West,263,0.0,0.0,60,0.00,,,0.00,Wunderground v.1.13,2013-03-14 04:25:00,
2013-03-13 23:30:00,20.2,8.5,30.26,West,263,0.0,0.0,60,0.00,,,0.00,Wunderground v.1.13,2013-03-14 04:30:00,
2013-03-13 23:35:00,20.0,8.3,30.25,West,263,0.0,0.0,60,0.00,,,0.00,Wunderground v.1.13,2013-03-14 04:35:00,
2013-03-13 23:45:00,19.9,8.6,30.25,West,263,0.0,0.0,61,0.00,,,0.00,Wunderground v.1.13,2013-03-14 04:45:00,
2013-03-13 23:55:00,19.5,8.6,30.26,West,263,0.0,0.0,62,0.00,,,0.00,Wunderground v.1.13,2013-03-14 04:55:00,